Time;durP1;ratioP1;P1;durP2;ratioP2;P2;SDS_P1;SDS_P2;PMS_P1;PMS_P2;Temp;Humidity;BMP_temperature;BMP_pressure;BME280_temperature;BME280_humidity;BME280_pressure;Samples;Min_cycle;Max_cycle;Signal;HPM_P1;HPM_P2
2023/12/31 00:02:05;;;;;;;18.77;17.07;;;3.30;99.90;;;;;;4895866;29;20643;-80
2023/12/31 00:04:34;;;;;;;19.47;17.77;;;3.30;99.90;;;;;;4895409;29;20216;-80
2023/12/31 00:07:01;;;;;;;19.70;17.90;;;3.30;99.90;;;;;;4895192;29;20206;-80
2023/12/31 00:09:27;;;;;;;20.43;18.30;;;3.30;99.90;;;;;;4895170;29;20665;-79
2023/12/31 00:11:54;;;;;;;20.17;18.23;;;3.30;99.90;;;;;;4895232;29;20212;-80
2023/12/31 00:14:21;;;;;;;21.30;19.40;;;3.20;99.90;;;;;;4894947;29;20260;-80
2023/12/31 00:16:48;;;;;;;20.13;18.23;;;3.20;99.90;;;;;;4894718;29;20239;-80
2023/12/31 00:19:15;;;;;;;21.60;19.60;;;3.30;99.90;;;;;;4894907;29;20296;-79
2023/12/31 00:21:44;;;;;;;20.90;18.03;;;3.30;99.90;;;;;;4891827;29;20213;-80
2023/12/31 00:24:10;;;;;;;20.27;18.33;;;3.20;99.90;;;;;;4894629;29;20638;-79
2023/12/31 00:26:37;;;;;;;20.87;18.67;;;3.30;99.90;;;;;;4899557;29;20200;-80
2023/12/31 00:29:09;;;;;;;18.70;17.00;;;3.30;99.90;;;;;;4898046;29;20323;-80
2023/12/31 00:31:36;;;;;;;19.27;17.50;;;3.30;99.90;;;;;;4898248;29;20656;-81
2023/12/31 00:34:03;;;;;;;18.43;16.70;;;3.40;99.90;;;;;;4898640;29;20581;-80
2023/12/31 00:36:31;;;;;;;18.60;16.90;;;3.40;99.90;;;;;;4898256;29;20389;-80
2023/12/31 00:38:59;;;;;;;17.80;16.10;;;3.40;99.90;;;;;;4900842;29;20247;-80
2023/12/31 00:41:26;;;;;;;17.40;15.90;;;3.40;99.90;;;;;;4898651;29;20205;-80
2023/12/31 00:43:52;;;;;;;17.90;16.30;;;3.40;99.90;;;;;;4898391;29;20208;-80
2023/12/31 00:46:19;;;;;;;18.70;17.00;;;3.40;99.90;;;;;;4899190;29;20209;-80
2023/12/31 00:48:46;;;;;;;18.30;16.57;;;3.50;99.90;;;;;;4898250;29;20497;-80
2023/12/31 00:51:13;;;;;;;17.47;16.00;;;3.50;99.90;;;;;;4897849;29;20240;-79
2023/12/31 00:53:40;;;;;;;17.37;15.70;;;3.60;99.90;;;;;;4898073;29;20216;-80
2023/12/31 00:56:09;;;;;;;17.07;15.67;;;3.50;99.90;;;;;;4898464;29;20216;-80
2023/12/31 00:58:36;;;;;;;18.40;16.77;;;3.50;99.90;;;;;;4897458;29;20700;-80
2023/12/31 01:01:03;;;;;;;18.70;16.93;;;3.50;99.90;;;;;;4893867;29;20282;-80
2023/12/31 01:03:30;;;;;;;18.20;16.67;;;3.40;99.90;;;;;;4897568;29;20212;-81
2023/12/31 01:06:04;;;;;;;19.40;17.67;;;3.40;99.90;;;;;;4898324;29;20208;-80
2023/12/31 01:08:31;;;;;;;18.57;16.97;;;3.40;99.90;;;;;;4897377;29;20602;-80
2023/12/31 01:10:59;;;;;;;19.27;17.43;;;3.40;99.90;;;;;;4898841;29;20205;-79
2023/12/31 01:13:28;;;;;;;17.93;16.53;;;3.40;99.90;;;;;;4904122;29;20252;-79
2023/12/31 01:15:55;;;;;;;17.13;15.73;;;3.40;99.90;;;;;;4892600;29;20209;-80
2023/12/31 01:18:22;;;;;;;18.20;16.60;;;3.40;99.90;;;;;;4897599;29;20620;-79
2023/12/31 01:20:49;;;;;;;18.37;16.77;;;3.30;99.90;;;;;;4897819;29;20224;-79
2023/12/31 01:23:16;;;;;;;20.00;18.10;;;3.30;99.90;;;;;;4897263;29;20564;-80
2023/12/31 01:25:43;;;;;;;19.33;17.70;;;3.20;99.90;;;;;;4898952;29;20228;-81
2023/12/31 01:28:09;;;;;;;19.83;18.13;;;3.20;99.90;;;;;;4907218;29;20227;-80
2023/12/31 01:30:38;;;;;;;21.30;19.10;;;3.10;99.90;;;;;;4904242;29;20205;-80
2023/12/31 01:33:05;;;;;;;21.13;19.10;;;3.10;99.90;;;;;;4920282;29;20211;-81
2023/12/31 01:35:32;;;;;;;21.23;19.33;;;3.00;99.90;;;;;;4908484;29;20208;-80
2023/12/31 01:37:58;;;;;;;22.97;20.77;;;2.90;99.90;;;;;;4900262;29;20220;-80
2023/12/31 01:40:25;;;;;;;21.93;19.93;;;2.80;99.90;;;;;;4899425;29;20759;-80
2023/12/31 01:42:52;;;;;;;20.67;18.87;;;2.80;99.90;;;;;;4896976;29;20200;-81
2023/12/31 01:45:19;;;;;;;22.37;20.37;;;2.80;99.90;;;;;;4899996;29;20257;-79
2023/12/31 01:47:47;;;;;;;21.80;19.73;;;2.80;99.90;;;;;;4898176;29;20347;-80
2023/12/31 01:50:14;;;;;;;20.93;18.93;;;2.80;99.90;;;;;;4896931;29;20253;-80
2023/12/31 01:52:43;;;;;;;22.03;19.70;;;2.70;99.90;;;;;;4896812;29;20205;-80
2023/12/31 01:55:12;;;;;;;20.13;18.23;;;2.70;99.90;;;;;;4896888;29;20220;-80
2023/12/31 01:57:40;;;;;;;18.67;17.13;;;2.60;99.90;;;;;;4896846;29;20252;-80
2023/12/31 02:00:08;;;;;;;20.07;18.27;;;2.50;99.90;;;;;;4896917;29;20201;-80
2023/12/31 02:02:43;;;;;;;19.20;17.50;;;2.50;99.90;;;;;;4896802;29;20196;-80
2023/12/31 02:05:12;;;;;;;17.90;16.50;;;2.50;99.90;;;;;;4894006;29;20287;-80
2023/12/31 02:07:39;;;;;;;18.27;16.77;;;2.50;99.90;;;;;;4896721;29;20228;-80
2023/12/31 02:10:07;;;;;;;18.03;16.43;;;2.50;99.90;;;;;;4897641;29;20668;-80
2023/12/31 02:12:34;;;;;;;18.47;16.87;;;2.40;99.90;;;;;;4896483;29;20225;-80
2023/12/31 02:15:01;;;;;;;17.90;16.40;;;2.40;99.90;;;;;;4896418;29;20587;-80
2023/12/31 02:17:28;;;;;;;18.07;16.47;;;2.40;99.90;;;;;;4896237;29;20238;-80
2023/12/31 02:19:55;;;;;;;18.33;16.73;;;2.50;99.90;;;;;;4899488;29;20207;-80
2023/12/31 02:22:23;;;;;;;17.30;15.87;;;2.50;99.90;;;;;;4896197;29;20201;-79
2023/12/31 02:24:52;;;;;;;17.43;16.00;;;2.50;99.90;;;;;;4897303;29;20731;-80
2023/12/31 02:27:20;;;;;;;17.80;16.37;;;2.50;99.90;;;;;;4895941;29;20222;-80
2023/12/31 02:29:47;;;;;;;19.17;17.43;;;2.50;99.90;;;;;;4896214;29;20212;-80
2023/12/31 02:32:14;;;;;;;18.37;16.73;;;2.50;99.90;;;;;;4896157;29;20192;-80
2023/12/31 02:34:45;;;;;;;17.87;16.37;;;2.40;99.90;;;;;;4896380;29;20201;-79
2023/12/31 02:37:12;;;;;;;17.83;16.43;;;2.40;99.90;;;;;;4896029;29;20286;-80
2023/12/31 02:39:38;;;;;;;17.93;16.40;;;2.40;99.90;;;;;;4898095;29;20208;-80
2023/12/31 02:42:05;;;;;;;18.43;16.77;;;2.30;99.90;;;;;;4895909;29;20212;-80
2023/12/31 02:44:33;;;;;;;17.23;15.83;;;2.30;99.90;;;;;;4897095;29;20205;-79
2023/12/31 02:47:00;;;;;;;17.30;15.73;;;2.30;99.90;;;;;;4897202;29;20252;-80
2023/12/31 02:49:27;;;;;;;16.20;14.90;;;2.30;99.90;;;;;;4894762;29;20216;-80
2023/12/31 02:51:54;;;;;;;17.67;16.17;;;2.20;99.90;;;;;;4897438;29;20203;-80
2023/12/31 02:54:21;;;;;;;17.20;15.70;;;2.30;99.90;;;;;;4897118;29;20222;-79
2023/12/31 02:56:48;;;;;;;16.70;15.43;;;2.30;99.90;;;;;;4895884;29;20192;-80
2023/12/31 02:59:15;;;;;;;16.60;15.20;;;2.40;99.90;;;;;;4913276;23;20232;-72
2023/12/31 03:01:43;;;;;;;16.40;15.20;;;2.40;99.90;;;;;;4891965;29;20261;-72
2023/12/31 03:04:10;;;;;;;16.23;14.93;;;2.40;99.90;;;;;;4891106;29;20201;-71
2023/12/31 03:06:39;;;;;;;17.20;15.80;;;2.50;99.90;;;;;;4894200;29;20201;-72
2023/12/31 03:09:06;;;;;;;18.03;16.53;;;2.40;99.90;;;;;;4881063;29;20237;-72
2023/12/31 03:11:33;;;;;;;17.30;15.90;;;2.40;99.90;;;;;;4879640;29;20319;-72
2023/12/31 03:14:00;;;;;;;17.43;16.07;;;2.40;99.90;;;;;;4877659;29;20236;-72
2023/12/31 03:16:27;;;;;;;17.20;15.80;;;2.50;99.90;;;;;;4881261;29;20290;-72
2023/12/31 03:18:55;;;;;;;17.03;15.80;;;2.50;99.90;;;;;;4875118;29;20696;-72
2023/12/31 03:21:23;;;;;;;18.60;17.17;;;2.60;99.90;;;;;;4877896;29;20729;-72
2023/12/31 03:23:49;;;;;;;17.57;16.23;;;2.60;99.90;;;;;;4872926;29;20193;-72
2023/12/31 03:26:16;;;;;;;18.07;16.73;;;2.70;99.90;;;;;;4877364;29;20270;-72
2023/12/31 03:28:43;;;;;;;17.73;16.20;;;2.80;99.90;;;;;;4879834;29;20225;-72
2023/12/31 03:31:10;;;;;;;17.27;15.87;;;2.80;99.90;;;;;;4882381;29;20217;-72
2023/12/31 03:33:37;;;;;;;17.37;15.93;;;2.90;99.90;;;;;;4877683;29;20296;-72
2023/12/31 03:36:06;;;;;;;16.13;14.83;;;3.00;99.90;;;;;;4882436;29;20209;-72
2023/12/31 03:38:33;;;;;;;16.43;15.13;;;3.20;99.90;;;;;;4875094;29;20230;-72
2023/12/31 03:41:00;;;;;;;15.80;14.60;;;3.30;99.90;;;;;;4883689;29;20753;-72
2023/12/31 03:43:27;;;;;;;14.87;13.77;;;3.40;99.90;;;;;;4881058;29;20605;-72
2023/12/31 03:45:54;;;;;;;14.30;13.10;;;3.70;99.90;;;;;;4881927;29;20201;-72
2023/12/31 03:48:20;;;;;;;14.70;13.70;;;3.80;99.90;;;;;;4878435;29;20236;-72
2023/12/31 03:50:47;;;;;;;14.07;13.10;;;4.00;99.90;;;;;;4878169;29;20681;-72
2023/12/31 03:53:16;;;;;;;14.43;13.37;;;4.10;99.90;;;;;;4876740;29;20537;-72
2023/12/31 03:55:43;;;;;;;13.47;12.57;;;4.20;99.90;;;;;;4875928;29;20212;-72
2023/12/31 03:58:10;;;;;;;14.70;13.60;;;4.40;99.90;;;;;;4875915;29;20233;-74
2023/12/31 04:00:37;;;;;;;14.63;13.73;;;4.50;99.90;;;;;;4872688;29;20209;-74
2023/12/31 04:03:04;;;;;;;13.43;12.63;;;4.60;99.90;;;;;;4882885;29;20201;-74
2023/12/31 04:05:31;;;;;;;13.73;12.73;;;4.70;99.90;;;;;;4872888;29;20213;-74
2023/12/31 04:07:58;;;;;;;13.27;12.37;;;4.80;99.90;;;;;;4879289;29;20246;-74
2023/12/31 04:10:26;;;;;;;13.30;12.30;;;4.80;99.90;;;;;;4884558;29;20258;-74
2023/12/31 04:12:53;;;;;;;13.30;12.40;;;4.80;99.90;;;;;;4875602;29;20203;-74
2023/12/31 04:15:22;;;;;;;13.47;12.67;;;4.80;99.90;;;;;;4882786;29;20234;-74
2023/12/31 04:17:49;;;;;;;12.70;11.90;;;4.80;99.90;;;;;;4883613;29;20285;-74
2023/12/31 04:20:16;;;;;;;12.60;11.80;;;4.80;99.90;;;;;;4880895;29;20208;-75
2023/12/31 04:22:42;;;;;;;12.77;11.97;;;4.90;99.90;;;;;;4884683;29;20221;-72
2023/12/31 04:25:09;;;;;;;12.63;11.83;;;4.90;99.90;;;;;;4879866;29;20219;-72
2023/12/31 04:27:40;;;;;;;12.90;11.97;;;5.00;99.90;;;;;;4878605;29;20262;-77
2023/12/31 04:30:07;;;;;;;12.97;12.07;;;5.00;99.90;;;;;;4880230;29;20217;-77
2023/12/31 04:32:34;;;;;;;12.20;11.40;;;5.10;99.90;;;;;;4877115;29;20920;-75
2023/12/31 04:35:01;;;;;;;12.20;11.40;;;5.00;99.90;;;;;;4882145;29;20202;-74
2023/12/31 04:37:28;;;;;;;12.20;11.40;;;5.10;99.90;;;;;;4872166;29;20230;-74
2023/12/31 04:39:55;;;;;;;12.67;11.77;;;5.00;99.90;;;;;;4885454;29;20226;-73
2023/12/31 04:42:22;;;;;;;12.93;11.90;;;5.00;99.90;;;;;;4881518;29;20195;-73
2023/12/31 04:44:50;;;;;;;12.00;11.30;;;5.10;99.90;;;;;;4885516;29;20210;-75
2023/12/31 04:47:17;;;;;;;12.03;11.23;;;5.00;99.90;;;;;;4883839;29;20738;-75
2023/12/31 04:49:44;;;;;;;12.73;11.70;;;5.00;99.90;;;;;;4882528;29;20299;-72
2023/12/31 04:52:10;;;;;;;11.80;11.00;;;5.10;99.90;;;;;;4884343;29;20200;-73
2023/12/31 04:54:39;;;;;;;12.40;11.60;;;5.10;99.90;;;;;;4884185;29;20218;-73
2023/12/31 04:57:06;;;;;;;12.27;11.47;;;5.00;99.90;;;;;;4884011;29;20205;-73
2023/12/31 04:59:32;;;;;;;12.80;11.90;;;5.00;99.90;;;;;;4882886;29;20269;-73
2023/12/31 05:02:01;;;;;;;12.33;11.53;;;5.00;99.90;;;;;;4884115;29;20207;-73
2023/12/31 05:04:28;;;;;;;13.07;12.27;;;5.00;99.90;;;;;;4885090;29;20568;-72
2023/12/31 05:06:54;;;;;;;12.90;12.10;;;5.00;99.90;;;;;;4884724;29;20654;-73
2023/12/31 05:09:23;;;;;;;14.47;13.33;;;5.00;99.90;;;;;;4885316;29;20230;-73
2023/12/31 05:11:50;;;;;;;16.43;15.03;;;4.80;99.90;;;;;;4881547;29;20205;-72
2023/12/31 05:14:16;;;;;;;15.63;14.53;;;4.50;99.90;;;;;;4881116;29;20198;-73
2023/12/31 05:16:44;;;;;;;16.27;14.97;;;4.20;99.90;;;;;;4879779;29;20258;-72
2023/12/31 05:19:12;;;;;;;15.07;13.97;;;4.00;99.90;;;;;;4880487;29;20228;-75
2023/12/31 05:21:39;;;;;;;15.33;14.13;;;3.80;99.90;;;;;;4874972;29;20211;-75
2023/12/31 05:24:07;;;;;;;15.80;14.60;;;3.70;99.90;;;;;;4878900;29;20728;-78
2023/12/31 05:26:34;;;;;;;15.17;13.83;;;3.60;99.90;;;;;;4879358;29;20209;-74
2023/12/31 05:29:00;;;;;;;15.23;14.13;;;3.50;99.90;;;;;;4879182;29;20254;-74
2023/12/31 05:31:27;;;;;;;15.40;14.30;;;3.40;99.90;;;;;;4870184;29;20273;-72
2023/12/31 05:33:55;;;;;;;14.37;13.33;;;3.30;99.90;;;;;;4884400;29;20209;-72
2023/12/31 05:36:23;;;;;;;15.70;14.40;;;3.40;99.90;;;;;;4878088;29;20261;-72
2023/12/31 05:38:50;;;;;;;15.27;14.17;;;3.40;99.90;;;;;;4876890;29;20224;-73
2023/12/31 05:41:17;;;;;;;14.60;13.40;;;3.50;99.90;;;;;;4880268;29;20199;-75
2023/12/31 05:43:44;;;;;;;15.57;14.23;;;3.60;99.90;;;;;;4880336;29;20685;-75
2023/12/31 05:46:11;;;;;;;15.03;13.93;;;3.40;99.90;;;;;;4877210;29;20202;-75
2023/12/31 05:48:39;;;;;;;14.73;13.63;;;3.30;99.90;;;;;;4877921;29;20226;-75
2023/12/31 05:51:06;;;;;;;15.57;14.40;;;3.30;99.90;;;;;;4880312;29;20207;-75
2023/12/31 05:53:34;;;;;;;14.80;13.80;;;3.30;99.90;;;;;;4878476;29;20205;-72
2023/12/31 05:56:01;;;;;;;15.07;13.97;;;3.40;99.90;;;;;;4878095;29;20273;-73
2023/12/31 05:58:28;;;;;;;15.30;14.13;;;3.40;99.90;;;;;;4881453;29;20228;-73
2023/12/31 06:00:55;;;;;;;15.50;14.30;;;3.40;99.90;;;;;;4880470;29;20233;-76
2023/12/31 06:03:22;;;;;;;15.07;13.87;;;3.30;99.90;;;;;;4881678;29;20241;-75
2023/12/31 06:05:48;;;;;;;15.33;14.03;;;3.30;99.90;;;;;;4879594;29;20669;-74
2023/12/31 06:08:16;;;;;;;15.30;14.20;;;3.20;99.90;;;;;;4879898;29;20644;-80
2023/12/31 06:10:44;;;;;;;15.50;14.30;;;3.20;99.90;;;;;;4880343;29;20764;-75
2023/12/31 06:13:11;;;;;;;15.20;14.00;;;3.10;99.90;;;;;;4884300;29;20201;-76
2023/12/31 06:15:38;;;;;;;15.43;14.33;;;3.00;99.90;;;;;;4884722;29;20206;-75
2023/12/31 06:18:05;;;;;;;14.63;13.63;;;3.00;99.90;;;;;;4878185;29;20225;-73
2023/12/31 06:20:32;;;;;;;15.30;14.13;;;3.00;99.90;;;;;;4878748;29;20221;-73
2023/12/31 06:22:59;;;;;;;14.07;13.07;;;3.00;99.90;;;;;;4882222;29;20627;-73
2023/12/31 06:25:25;;;;;;;15.00;13.97;;;3.10;99.90;;;;;;4880727;29;20201;-76
2023/12/31 06:27:54;;;;;;;14.60;13.50;;;3.20;99.90;;;;;;4889073;29;20285;-76
2023/12/31 06:30:21;;;;;;;15.40;14.30;;;3.30;99.90;;;;;;4881883;29;20197;-73
2023/12/31 06:32:48;;;;;;;15.33;14.23;;;3.30;99.90;;;;;;4881692;29;20788;-74
2023/12/31 06:35:15;;;;;;;14.53;13.43;;;3.40;99.90;;;;;;4880832;29;20696;-76
2023/12/31 06:37:41;;;;;;;14.90;13.80;;;3.40;99.90;;;;;;4881652;29;20308;-76
2023/12/31 06:40:09;;;;;;;15.50;14.30;;;3.40;99.90;;;;;;4874936;29;20225;-76
2023/12/31 06:42:36;;;;;;;15.67;14.47;;;3.50;99.90;;;;;;4879425;29;20206;-75
2023/12/31 06:45:05;;;;;;;15.27;14.17;;;3.50;99.90;;;;;;4877925;29;20214;-78
2023/12/31 06:47:32;;;;;;;15.43;14.20;;;3.50;99.90;;;;;;4877723;29;20657;-74
2023/12/31 06:49:59;;;;;;;15.90;14.60;;;3.60;99.90;;;;;;4884152;29;20206;-74
2023/12/31 06:52:26;;;;;;;15.70;14.60;;;3.60;99.90;;;;;;4889830;29;20208;-74
2023/12/31 06:54:53;;;;;;;15.57;14.37;;;3.60;99.90;;;;;;4884807;29;20205;-74
2023/12/31 06:57:20;;;;;;;15.33;14.10;;;3.70;99.90;;;;;;4882126;29;20201;-74
2023/12/31 06:59:46;;;;;;;15.50;14.40;;;3.70;99.90;;;;;;4880350;29;20590;-74
2023/12/31 07:02:15;;;;;;;16.60;14.97;;;3.70;99.90;;;;;;4880072;29;20210;-71
2023/12/31 07:04:41;;;;;;;15.97;14.87;;;3.80;99.90;;;;;;4878841;29;20212;-74
2023/12/31 07:07:08;;;;;;;15.60;14.30;;;3.80;99.90;;;;;;4880618;29;20197;-74
2023/12/31 07:09:35;;;;;;;16.53;15.33;;;3.80;99.90;;;;;;4880209;29;20660;-74
2023/12/31 07:12:02;;;;;;;15.20;14.10;;;3.90;99.90;;;;;;4880195;29;20193;-74
2023/12/31 07:14:29;;;;;;;15.43;14.33;;;3.90;99.90;;;;;;4880940;29;20218;-76
2023/12/31 07:16:56;;;;;;;15.40;14.30;;;4.00;99.90;;;;;;4879533;29;20527;-81
2023/12/31 07:19:24;;;;;;;15.27;14.17;;;4.00;99.90;;;;;;4877956;29;20220;-76
2023/12/31 07:21:51;;;;;;;15.83;14.63;;;4.10;99.90;;;;;;4879599;29;20261;-76
2023/12/31 07:24:18;;;;;;;15.47;14.37;;;4.10;99.90;;;;;;4879872;29;20277;-76
2023/12/31 07:26:44;;;;;;;15.20;14.20;;;4.10;99.90;;;;;;4875921;29;20214;-75
2023/12/31 07:29:11;;;;;;;15.63;14.53;;;4.20;99.90;;;;;;4870650;29;20700;-76
2023/12/31 07:31:38;;;;;;;16.37;15.07;;;4.20;99.90;;;;;;4873435;29;20273;-76
2023/12/31 07:34:05;;;;;;;16.67;15.33;;;4.10;99.90;;;;;;4878969;29;20205;-76
2023/12/31 07:36:33;;;;;;;16.60;15.40;;;4.20;99.90;;;;;;4880705;29;20740;-76
2023/12/31 07:39:01;;;;;;;16.00;14.90;;;4.20;99.90;;;;;;4890204;29;20233;-76
2023/12/31 07:41:27;;;;;;;16.17;14.90;;;4.20;99.90;;;;;;4888400;29;20213;-76
2023/12/31 07:43:54;;;;;;;16.03;14.83;;;4.20;99.90;;;;;;4881595;29;20224;-73
2023/12/31 07:46:21;;;;;;;16.00;14.80;;;4.20;99.90;;;;;;4882473;29;20245;-75
2023/12/31 07:48:49;;;;;;;15.10;14.00;;;4.20;99.90;;;;;;4882221;29;20665;-74
2023/12/31 07:51:17;;;;;;;15.60;14.50;;;4.40;99.90;;;;;;4886698;29;20206;-74
2023/12/31 07:53:45;;;;;;;15.33;14.27;;;4.40;99.90;;;;;;4886186;29;20566;-74
2023/12/31 07:56:12;;;;;;;15.30;14.20;;;4.40;99.90;;;;;;4890843;29;20265;-74
2023/12/31 07:58:38;;;;;;;15.30;14.10;;;4.50;99.90;;;;;;4889151;29;20243;-74
2023/12/31 08:01:05;;;;;;;16.00;14.90;;;4.50;99.90;;;;;;4884319;29;20221;-74
2023/12/31 08:03:32;;;;;;;15.03;13.93;;;4.60;99.90;;;;;;4885272;29;20213;-74
2023/12/31 08:05:59;;;;;;;16.03;14.80;;;4.60;99.90;;;;;;4886235;29;20288;-74
2023/12/31 08:08:25;;;;;;;16.20;14.97;;;4.50;99.90;;;;;;4883786;29;20261;-74
2023/12/31 08:10:54;;;;;;;16.60;15.20;;;4.60;99.90;;;;;;4884638;29;20209;-74
2023/12/31 08:13:20;;;;;;;16.77;15.57;;;4.50;99.90;;;;;;4884889;29;20637;-74
2023/12/31 08:15:47;;;;;;;15.90;14.80;;;4.50;99.90;;;;;;4884908;29;20486;-77
2023/12/31 08:18:14;;;;;;;15.90;14.73;;;4.60;99.90;;;;;;4881892;29;20270;-73
2023/12/31 08:20:42;;;;;;;15.20;14.10;;;4.60;99.90;;;;;;4874172;29;20223;-74
2023/12/31 08:23:09;;;;;;;16.07;14.80;;;4.70;99.90;;;;;;4879952;29;20211;-74
2023/12/31 08:25:36;;;;;;;16.30;15.10;;;4.70;99.90;;;;;;4880831;29;20222;-76
2023/12/31 08:28:04;;;;;;;16.10;14.90;;;4.70;99.90;;;;;;4877679;29;20234;-76
2023/12/31 08:30:33;;;;;;;15.10;14.07;;;4.80;99.90;;;;;;4877873;29;20214;-76
2023/12/31 08:33:00;;;;;;;15.30;14.27;;;4.90;99.90;;;;;;4880516;29;20197;-76
2023/12/31 08:35:26;;;;;;;15.30;14.20;;;4.90;99.90;;;;;;4877241;29;20301;-76
2023/12/31 08:37:53;;;;;;;15.33;14.23;;;5.00;99.90;;;;;;4864536;29;20262;-76
2023/12/31 08:40:20;;;;;;;15.83;14.67;;;5.00;99.90;;;;;;4874416;29;20218;-76
2023/12/31 08:42:47;;;;;;;15.90;14.70;;;5.00;99.90;;;;;;4883175;29;20213;-76
2023/12/31 08:45:15;;;;;;;15.37;14.17;;;5.00;99.90;;;;;;4885233;29;21163;-73
2023/12/31 08:47:42;;;;;;;15.67;14.50;;;5.00;99.90;;;;;;4882642;29;20603;-73
2023/12/31 08:50:11;;;;;;;14.63;13.67;;;5.00;99.90;;;;;;4888696;29;20211;-73
2023/12/31 08:52:46;;;;;;;16.20;14.73;;;5.10;99.90;;;;;;4884108;29;20667;-73
2023/12/31 08:55:14;;;;;;;15.80;14.60;;;5.10;99.90;;;;;;4884112;29;20210;-73
2023/12/31 08:57:46;;;;;;;15.23;14.13;;;5.10;99.90;;;;;;4884278;29;20227;-73
2023/12/31 09:00:17;;;;;;;15.97;14.80;;;5.20;99.90;;;;;;4883562;29;20215;-73
2023/12/31 09:02:44;;;;;;;16.77;15.57;;;5.20;99.90;;;;;;4881389;29;20215;-73
2023/12/31 09:05:11;;;;;;;15.67;14.57;;;5.20;99.90;;;;;;4879604;29;20211;-74
2023/12/31 09:07:37;;;;;;;15.40;14.20;;;5.30;99.90;;;;;;4878851;29;20211;-73
2023/12/31 09:10:05;;;;;;;15.60;14.23;;;5.40;99.90;;;;;;4891080;29;20207;-73
2023/12/31 09:12:47;;;;;;;15.57;14.47;;;5.50;99.90;;;;;;4919295;23;20479;-79
2023/12/31 09:19:14;;;;;;;16.80;15.50;;;5.60;99.90;;;;;;4882559;29;20238;-79
2023/12/31 09:21:41;;;;;;;16.57;15.43;;;5.70;99.90;;;;;;4904079;29;20302;-79
2023/12/31 09:24:08;;;;;;;16.40;15.20;;;5.70;99.90;;;;;;4904652;29;20203;-79
2023/12/31 09:26:36;;;;;;;17.23;15.93;;;5.80;99.90;;;;;;4907661;29;20599;-79
2023/12/31 09:29:03;;;;;;;17.13;15.73;;;5.80;99.90;;;;;;4903816;29;20479;-79
2023/12/31 09:31:40;;;;;;;17.47;16.07;;;5.90;99.90;;;;;;4896460;29;20618;-79
2023/12/31 09:34:07;;;;;;;18.13;16.67;;;6.00;99.90;;;;;;4902594;29;20215;-79
2023/12/31 09:36:35;;;;;;;17.47;16.03;;;6.10;99.90;;;;;;4906879;29;20587;-79
2023/12/31 09:39:02;;;;;;;17.17;15.87;;;6.10;99.90;;;;;;4903649;29;20200;-79
2023/12/31 09:41:31;;;;;;;17.70;16.37;;;6.20;99.90;;;;;;4898154;29;20282;-79
2023/12/31 09:44:03;;;;;;;19.60;17.97;;;6.30;99.90;;;;;;4919587;29;20213;-79
2023/12/31 09:46:35;;;;;;;19.00;17.37;;;6.40;99.90;;;;;;4899672;29;20629;-80
2023/12/31 09:49:02;;;;;;;19.60;18.00;;;6.50;99.90;;;;;;4901821;29;20212;-80
2023/12/31 09:51:30;;;;;;;18.43;16.93;;;6.70;99.90;;;;;;4905523;29;20582;-80
2023/12/31 09:54:01;;;;;;;18.27;16.70;;;6.80;99.90;;;;;;4903184;29;20204;-78
2023/12/31 09:56:30;;;;;;;17.87;16.47;;;6.90;99.90;;;;;;4898372;29;20247;-80
2023/12/31 09:58:58;;;;;;;16.90;15.70;;;7.10;99.90;;;;;;4897376;29;20208;-84
2023/12/31 10:01:36;;;;;;;16.53;15.33;;;7.40;99.90;;;;;;4897436;29;20231;-81
2023/12/31 10:04:07;;;;;;;16.63;15.37;;;7.60;99.90;;;;;;4895991;29;20675;-78
2023/12/31 10:06:44;;;;;;;14.97;13.90;;;7.90;99.90;;;;;;4897608;29;20256;-79
2023/12/31 10:09:27;;;;;;;13.80;12.90;;;8.30;99.90;;;;;;4898716;29;20209;-79
2023/12/31 10:11:54;;;;;;;9.23;8.63;;;8.70;99.90;;;;;;4898511;29;20707;-79
2023/12/31 10:14:21;;;;;;;12.27;11.53;;;9.10;99.90;;;;;;4900358;29;20264;-79
2023/12/31 10:16:49;;;;;;;10.70;10.00;;;9.30;99.90;;;;;;4897920;29;20208;-78
2023/12/31 10:19:16;;;;;;;11.80;11.07;;;9.50;99.90;;;;;;4898604;29;20208;-79
2023/12/31 10:21:45;;;;;;;10.70;10.10;;;9.70;99.90;;;;;;4896505;29;20221;-79
2023/12/31 10:24:12;;;;;;;11.00;10.20;;;9.90;99.90;;;;;;4896964;29;20209;-79
2023/12/31 10:26:44;;;;;;;10.67;10.07;;;10.00;99.90;;;;;;4896938;29;20224;-79
2023/12/31 10:29:11;;;;;;;10.73;10.03;;;10.20;99.90;;;;;;4897001;29;20646;-77
2023/12/31 10:31:38;;;;;;;11.90;11.13;;;10.30;99.90;;;;;;4897601;29;20232;-79
2023/12/31 10:34:15;;;;;;;10.90;10.30;;;10.40;99.90;;;;;;4896028;29;20213;-77
2023/12/31 10:36:43;;;;;;;11.20;10.50;;;10.40;99.90;;;;;;4890969;29;20615;-79
2023/12/31 10:39:11;;;;;;;11.10;10.40;;;10.40;99.90;;;;;;4895705;29;20214;-78
2023/12/31 10:41:39;;;;;;;11.20;10.60;;;10.40;99.90;;;;;;4896922;29;20233;-78
2023/12/31 10:44:13;;;;;;;11.23;10.53;;;10.40;99.90;;;;;;4896353;29;20210;-79
2023/12/31 10:46:47;;;;;;;11.43;10.73;;;10.50;99.90;;;;;;4897719;29;20208;-79
2023/12/31 10:49:18;;;;;;;11.30;10.60;;;10.50;99.90;;;;;;4895972;29;20218;-78
2023/12/31 10:52:09;;;;;;;12.73;11.93;;;10.60;99.90;;;;;;4897681;29;20218;-79
2023/12/31 10:54:45;;;;;;;12.07;11.30;;;10.60;99.90;;;;;;4812635;29;20297;-79
2023/12/31 10:57:13;;;;;;;11.93;11.17;;;10.60;99.90;;;;;;4873950;29;20218;-79
2023/12/31 10:59:46;;;;;;;12.00;11.30;;;10.70;99.90;;;;;;4895714;29;20212;-79
2023/12/31 11:02:32;;;;;;;11.77;11.07;;;10.70;99.90;;;;;;4903858;29;20597;-79
2023/12/31 11:05:20;;;;;;;11.40;10.70;;;10.80;99.90;;;;;;4896595;29;20447;-78
2023/12/31 11:08:09;;;;;;;11.37;10.57;;;10.80;99.90;;;;;;4895851;29;20214;-78
2023/12/31 11:10:35;;;;;;;11.60;10.80;;;10.80;99.90;;;;;;4890292;29;20275;-79
2023/12/31 11:13:32;;;;;;;10.80;10.10;;;10.90;99.90;;;;;;4893598;29;20265;-81
2023/12/31 11:16:15;;;;;;;11.37;10.57;;;11.00;99.90;;;;;;4896988;29;20263;-80
2023/12/31 11:19:00;;;;;;;11.00;10.20;;;11.10;99.90;;;;;;4900959;29;20196;-79
2023/12/31 11:21:50;;;;;;;10.80;10.10;;;11.20;99.90;;;;;;4900337;29;20310;-79
2023/12/31 11:24:26;;;;;;;10.93;10.13;;;11.10;99.90;;;;;;4897716;29;20209;-80
2023/12/31 11:30:53;;;;;;;10.13;9.53;;;10.90;99.90;;;;;;4897621;29;20283;-80
2023/12/31 11:33:59;;;;;;;11.10;10.50;;;11.00;99.90;;;;;;4900419;29;20207;-80
2023/12/31 11:36:46;;;;;;;11.53;10.73;;;11.00;99.90;;;;;;4887728;29;20207;-81
2023/12/31 11:39:25;;;;;;;10.97;10.27;;;11.00;99.90;;;;;;4895595;29;20203;-83
2023/12/31 11:41:59;;;;;;;10.77;10.17;;;11.00;99.90;;;;;;4896655;29;20231;-80
2023/12/31 11:44:41;;;;;;;11.63;10.93;;;11.00;99.90;;;;;;4896255;29;20213;-79
2023/12/31 11:47:14;;;;;;;11.53;10.73;;;10.90;99.90;;;;;;4899561;29;20209;-80
2023/12/31 11:49:46;;;;;;;11.37;10.67;;;10.90;99.90;;;;;;4896559;29;20222;-80
2023/12/31 11:52:13;;;;;;;11.00;10.40;;;10.90;99.90;;;;;;4895824;29;20226;-78
2023/12/31 11:54:46;;;;;;;11.37;10.67;;;10.90;99.90;;;;;;4897743;29;20207;-80
2023/12/31 11:57:19;;;;;;;11.57;10.77;;;10.90;99.90;;;;;;4896496;29;20212;-79
2023/12/31 11:59:50;;;;;;;13.10;12.13;;;10.60;99.90;;;;;;4905817;29;20206;-80
2023/12/31 12:02:21;;;;;;;12.37;11.47;;;10.40;99.90;;;;;;4897669;29;20245;-81
2023/12/31 12:04:50;;;;;;;12.63;11.63;;;10.10;99.90;;;;;;4896153;29;20214;-80
2023/12/31 12:07:17;;;;;;;13.10;12.00;;;9.70;99.90;;;;;;4898037;29;20206;-79
2023/12/31 12:09:46;;;;;;;12.13;11.23;;;9.50;99.90;;;;;;4890941;29;20297;-79
2023/12/31 12:12:13;;;;;;;12.37;11.57;;;9.30;99.90;;;;;;4891505;29;20227;-80
2023/12/31 12:14:40;;;;;;;12.67;11.67;;;9.10;99.90;;;;;;4894739;29;20208;-79
2023/12/31 12:17:07;;;;;;;12.97;12.07;;;8.90;99.90;;;;;;4896222;29;20201;-80
2023/12/31 12:19:35;;;;;;;12.57;11.67;;;8.80;99.90;;;;;;4897821;29;21448;-79
2023/12/31 12:22:03;;;;;;;12.50;11.70;;;8.70;99.90;;;;;;4898790;29;20274;-80
2023/12/31 12:24:30;;;;;;;12.63;11.83;;;8.60;99.90;;;;;;4904384;29;20500;-79
2023/12/31 12:27:00;;;;;;;12.80;12.00;;;8.60;99.90;;;;;;4901819;29;20200;-79
2023/12/31 12:29:32;;;;;;;14.03;12.93;;;8.60;99.90;;;;;;4901645;29;20204;-78
2023/12/31 12:32:04;;;;;;;11.90;11.17;;;8.50;99.90;;;;;;4900449;29;20215;-80
2023/12/31 12:34:31;;;;;;;12.07;11.17;;;8.50;99.90;;;;;;4901707;29;20213;-80
2023/12/31 12:36:59;;;;;;;11.33;10.63;;;8.50;99.90;;;;;;4901551;29;20197;-80
2023/12/31 12:39:27;;;;;;;11.67;10.87;;;8.50;99.90;;;;;;4899471;29;20233;-79
2023/12/31 12:41:54;;;;;;;11.50;10.80;;;8.50;99.90;;;;;;4901645;29;20224;-80
2023/12/31 12:44:23;;;;;;;11.10;10.30;;;8.50;99.90;;;;;;4900710;29;20269;-79
2023/12/31 12:46:51;;;;;;;10.73;10.10;;;8.50;99.90;;;;;;4900779;29;20220;-79
2023/12/31 12:49:19;;;;;;;11.53;10.57;;;8.50;99.90;;;;;;4915813;29;20197;-78
2023/12/31 12:51:47;;;;;;;11.20;10.50;;;8.40;99.90;;;;;;4904116;29;20226;-79